ADDS METAR Data INFO
IDs: Format: Raw Decoded Include TAF

Data at: 2309 UTC 21 Feb 2018

KVVV 212244Z AUTO 26003KT 10SM CLR M07/M17 A3056 RMK AO2
KVVV 212205Z AUTO 21005KT 10SM CLR M07/M17 A3057 RMK AO2
KVVV 212125Z AUTO 25006KT 10SM CLR M07/M18 A3057 RMK AO2
KVVV 212045Z AUTO 25005KT 10SM CLR M07/M19 A3057 RMK AO2
KVVV 212003Z AUTO 22004KT 10SM CLR M07/M19 A3055 RMK AO2
KVVV 211924Z AUTO 23006KT 10SM CLR M08/M19 A3057 RMK AO2
KVVV 211845Z AUTO 23004KT 10SM CLR M08/M19 A3058 RMK AO2
KVVV 211805Z AUTO 25006KT 10SM CLR M09/M20 A3058 RMK AO2
KVVV 211724Z AUTO 23004KT 10SM CLR M11/M20 A3056 RMK AO2
KVVV 211655Z AUTO 24003KT 10SM CLR M12/M21 A3055 RMK AO2
KVVV 211635Z AUTO 21003KT 10SM CLR M13/M21 A3055 RMK AO2
KVVV 211615Z AUTO 19003KT 10SM CLR M14/M22 A3054 RMK AO2
KVVV 211555Z AUTO 16003KT 10SM CLR M14/M22 A3054 RMK AO2
KVVV 211535Z AUTO 19003KT 10SM CLR M16/M22 A3053 RMK AO2
KVVV 211515Z AUTO 00000KT 10SM CLR M17/M23 A3051 RMK AO2
KVVV 211455Z AUTO 00000KT 10SM CLR M18/M23 A3051 RMK AO2
KVVV 211435Z AUTO 00000KT 10SM CLR M18/M23 A3051 RMK AO2
KVVV 211415Z AUTO 00000KT 10SM CLR M20/M24 A3051 RMK AO2
KVVV 211355Z AUTO 00000KT 10SM CLR M21/M24 A3050 RMK AO2
KVVV 211335Z AUTO 00000KT 10SM CLR M22/M25 A3049 RMK AO2
KVVV 211315Z AUTO 00000KT 10SM CLR M21/M24 A3049 RMK AO2
KVVV 211255Z AUTO 25005KT 10SM CLR M21/M24 A3048 RMK AO2
KVVV 211235Z AUTO 23009KT 10SM CLR M21/M24 A3048 RMK AO2
KVVV 210755Z AUTO 29005KT 10SM CLR M18/M22 A3042 RMK AO2
KVVV 210735Z AUTO 26004KT 10SM CLR M18/M22 A3041 RMK AO2
KVVV 210715Z AUTO 00000KT 10SM CLR M18/M22 A3041 RMK AO2
KVVV 210653Z AUTO 25005KT 10SM CLR M17/M21 A3040 RMK AO2
KVVV 210644Z AUTO 26006KT 10SM CLR M17/M21 A3039 RMK AO2
KVVV 210615Z AUTO 26006KT 10SM CLR M17/M21 A3039 RMK AO2
KVVV 210555Z AUTO 27009KT 10SM CLR M16/M20 A3037 RMK AO2
KVVV 201504Z AUTO 33012G22KT 5SM -SN SCT012 OVC018 M14/M17 A3001 RMK AOC
KVVV 201423Z AUTO 34017G21KT 2 1/2SM -SN BKN010 OVC017 M14/M17 A2999 RMK
KVVV 201343Z AUTO 33013G18KT 2 1/2SM -SN OVC008 M15/M17 A3001 RMK AO2
KVVV 201304Z AUTO 34013G19KT 3SM -SN OVC008 M15/M17 A2996 RMK AO2
KVVV 201224Z AUTO 34013KT 5SM -SN BKN008 OVC080 M14/M17 A2997 RMK AO2
KVVV 201143Z AUTO 35013G19KT 7SM -SN OVC008 M14/M17 A2994 RMK AO2